sensor_id;sensor_type;location;lat;lon;timestamp;P1;durP1;ratioP1;P2;durP2;ratioP2
76752;SDS011;65687;51.308;16.916;2024-01-07T00:02:58;9.20;;;5.90;;
76752;SDS011;65687;51.308;16.916;2024-01-07T00:08:00;8.40;;;4.50;;
76752;SDS011;65687;51.308;16.916;2024-01-07T00:13:02;13.40;;;5.30;;
76752;SDS011;65687;51.308;16.916;2024-01-07T00:18:03;9.70;;;5.60;;
76752;SDS011;65687;51.308;16.916;2024-01-07T00:23:05;10.20;;;4.50;;
76752;SDS011;65687;51.308;16.916;2024-01-07T00:28:07;10.20;;;3.60;;
76752;SDS011;65687;51.308;16.916;2024-01-07T00:33:09;11.50;;;5.00;;
76752;SDS011;65687;51.308;16.916;2024-01-07T00:38:11;9.20;;;4.70;;
76752;SDS011;65687;51.308;16.916;2024-01-07T00:43:12;10.50;;;4.40;;
76752;SDS011;65687;51.308;16.916;2024-01-07T00:48:14;6.50;;;4.30;;
76752;SDS011;65687;51.308;16.916;2024-01-07T00:53:16;7.60;;;3.90;;
76752;SDS011;65687;51.308;16.916;2024-01-07T00:58:18;8.60;;;5.10;;
76752;SDS011;65687;51.308;16.916;2024-01-07T01:03:20;5.10;;;2.90;;
76752;SDS011;65687;51.308;16.916;2024-01-07T01:08:22;6.80;;;3.60;;
76752;SDS011;65687;51.308;16.916;2024-01-07T01:13:24;7.00;;;4.10;;
76752;SDS011;65687;51.308;16.916;2024-01-07T01:18:26;10.40;;;5.20;;
76752;SDS011;65687;51.308;16.916;2024-01-07T01:23:27;9.20;;;4.00;;
76752;SDS011;65687;51.308;16.916;2024-01-07T01:28:29;8.90;;;3.70;;
76752;SDS011;65687;51.308;16.916;2024-01-07T01:33:33;7.20;;;3.80;;
76752;SDS011;65687;51.308;16.916;2024-01-07T01:38:34;8.70;;;5.30;;
76752;SDS011;65687;51.308;16.916;2024-01-07T01:43:36;12.80;;;5.20;;
76752;SDS011;65687;51.308;16.916;2024-01-07T01:48:38;8.30;;;3.30;;
76752;SDS011;65687;51.308;16.916;2024-01-07T01:53:41;7.90;;;4.50;;
76752;SDS011;65687;51.308;16.916;2024-01-07T01:58:42;5.90;;;3.60;;
76752;SDS011;65687;51.308;16.916;2024-01-07T02:03:44;12.50;;;5.50;;
76752;SDS011;65687;51.308;16.916;2024-01-07T02:08:47;5.70;;;3.90;;
76752;SDS011;65687;51.308;16.916;2024-01-07T02:13:50;9.90;;;4.60;;
76752;SDS011;65687;51.308;16.916;2024-01-07T02:18:51;7.80;;;4.80;;
76752;SDS011;65687;51.308;16.916;2024-01-07T02:23:53;8.60;;;4.40;;
76752;SDS011;65687;51.308;16.916;2024-01-07T02:28:55;9.10;;;5.80;;
76752;SDS011;65687;51.308;16.916;2024-01-07T02:33:56;6.00;;;3.70;;
76752;SDS011;65687;51.308;16.916;2024-01-07T02:38:58;8.60;;;4.50;;
76752;SDS011;65687;51.308;16.916;2024-01-07T02:43:59;8.40;;;4.60;;
76752;SDS011;65687;51.308;16.916;2024-01-07T02:49:01;6.50;;;3.90;;
76752;SDS011;65687;51.308;16.916;2024-01-07T02:54:03;7.90;;;3.90;;
76752;SDS011;65687;51.308;16.916;2024-01-07T02:59:05;10.80;;;5.80;;
76752;SDS011;65687;51.308;16.916;2024-01-07T03:04:07;6.20;;;4.80;;
76752;SDS011;65687;51.308;16.916;2024-01-07T03:09:13;6.70;;;3.80;;
76752;SDS011;65687;51.308;16.916;2024-01-07T03:14:15;9.30;;;5.30;;
76752;SDS011;65687;51.308;16.916;2024-01-07T03:19:19;7.40;;;4.20;;
76752;SDS011;65687;51.308;16.916;2024-01-07T03:24:22;9.60;;;5.20;;
76752;SDS011;65687;51.308;16.916;2024-01-07T03:29:23;6.50;;;3.60;;
76752;SDS011;65687;51.308;16.916;2024-01-07T03:34:25;6.80;;;3.50;;
76752;SDS011;65687;51.308;16.916;2024-01-07T03:39:26;7.20;;;3.90;;
76752;SDS011;65687;51.308;16.916;2024-01-07T03:44:28;10.50;;;5.20;;
76752;SDS011;65687;51.308;16.916;2024-01-07T03:49:30;8.40;;;4.90;;
76752;SDS011;65687;51.308;16.916;2024-01-07T03:54:32;6.30;;;4.00;;
76752;SDS011;65687;51.308;16.916;2024-01-07T03:59:34;7.00;;;4.30;;
76752;SDS011;65687;51.308;16.916;2024-01-07T04:04:35;12.60;;;3.50;;
76752;SDS011;65687;51.308;16.916;2024-01-07T04:09:37;7.90;;;4.50;;
76752;SDS011;65687;51.308;16.916;2024-01-07T04:14:39;8.60;;;4.60;;
76752;SDS011;65687;51.308;16.916;2024-01-07T04:19:41;7.50;;;4.30;;
76752;SDS011;65687;51.308;16.916;2024-01-07T04:24:42;10.00;;;4.40;;
76752;SDS011;65687;51.308;16.916;2024-01-07T04:29:45;6.00;;;3.20;;
76752;SDS011;65687;51.308;16.916;2024-01-07T04:34:46;6.70;;;3.60;;
76752;SDS011;65687;51.308;16.916;2024-01-07T04:39:48;8.60;;;4.20;;
76752;SDS011;65687;51.308;16.916;2024-01-07T04:44:50;5.50;;;3.20;;
76752;SDS011;65687;51.308;16.916;2024-01-07T04:49:52;5.70;;;3.40;;
76752;SDS011;65687;51.308;16.916;2024-01-07T04:54:54;7.50;;;4.10;;
76752;SDS011;65687;51.308;16.916;2024-01-07T04:59:56;4.40;;;2.50;;
76752;SDS011;65687;51.308;16.916;2024-01-07T05:04:58;9.20;;;3.90;;
76752;SDS011;65687;51.308;16.916;2024-01-07T05:09:59;7.20;;;4.00;;
76752;SDS011;65687;51.308;16.916;2024-01-07T05:15:01;6.30;;;4.20;;
76752;SDS011;65687;51.308;16.916;2024-01-07T05:20:03;7.00;;;4.20;;
76752;SDS011;65687;51.308;16.916;2024-01-07T05:25:05;5.60;;;3.00;;
76752;SDS011;65687;51.308;16.916;2024-01-07T05:30:07;4.90;;;3.20;;
76752;SDS011;65687;51.308;16.916;2024-01-07T05:35:09;6.60;;;4.80;;
76752;SDS011;65687;51.308;16.916;2024-01-07T05:40:11;5.70;;;4.00;;
76752;SDS011;65687;51.308;16.916;2024-01-07T05:45:13;7.00;;;4.80;;
76752;SDS011;65687;51.308;16.916;2024-01-07T05:50:15;4.30;;;3.90;;
76752;SDS011;65687;51.308;16.916;2024-01-07T05:55:17;3.80;;;2.70;;
76752;SDS011;65687;51.308;16.916;2024-01-07T06:00:18;7.70;;;4.60;;
76752;SDS011;65687;51.308;16.916;2024-01-07T06:05:20;5.80;;;4.00;;
76752;SDS011;65687;51.308;16.916;2024-01-07T06:10:22;3.80;;;2.50;;
76752;SDS011;65687;51.308;16.916;2024-01-07T06:15:24;5.30;;;3.60;;
76752;SDS011;65687;51.308;16.916;2024-01-07T06:20:25;6.10;;;3.80;;
76752;SDS011;65687;51.308;16.916;2024-01-07T06:25:27;4.20;;;3.30;;
76752;SDS011;65687;51.308;16.916;2024-01-07T06:30:29;5.70;;;3.60;;
76752;SDS011;65687;51.308;16.916;2024-01-07T06:35:30;3.30;;;2.40;;
76752;SDS011;65687;51.308;16.916;2024-01-07T06:40:32;5.10;;;2.80;;
76752;SDS011;65687;51.308;16.916;2024-01-07T06:45:33;5.70;;;3.70;;
76752;SDS011;65687;51.308;16.916;2024-01-07T06:50:35;6.00;;;4.10;;
76752;SDS011;65687;51.308;16.916;2024-01-07T06:55:37;5.70;;;3.80;;
76752;SDS011;65687;51.308;16.916;2024-01-07T07:00:38;4.40;;;2.70;;
76752;SDS011;65687;51.308;16.916;2024-01-07T07:05:40;5.10;;;3.10;;
76752;SDS011;65687;51.308;16.916;2024-01-07T07:10:42;4.20;;;2.60;;
76752;SDS011;65687;51.308;16.916;2024-01-07T07:15:43;4.20;;;2.90;;
76752;SDS011;65687;51.308;16.916;2024-01-07T07:20:45;3.10;;;2.20;;
76752;SDS011;65687;51.308;16.916;2024-01-07T07:25:47;5.10;;;3.10;;
76752;SDS011;65687;51.308;16.916;2024-01-07T07:30:48;4.40;;;2.50;;
76752;SDS011;65687;51.308;16.916;2024-01-07T07:35:50;5.70;;;2.70;;
76752;SDS011;65687;51.308;16.916;2024-01-07T07:40:51;4.80;;;3.00;;
76752;SDS011;65687;51.308;16.916;2024-01-07T07:45:54;3.80;;;2.80;;
76752;SDS011;65687;51.308;16.916;2024-01-07T07:50:55;4.00;;;3.10;;
76752;SDS011;65687;51.308;16.916;2024-01-07T07:55:57;5.50;;;3.40;;
76752;SDS011;65687;51.308;16.916;2024-01-07T08:00:59;7.60;;;4.60;;
76752;SDS011;65687;51.308;16.916;2024-01-07T08:06:01;5.00;;;3.50;;
76752;SDS011;65687;51.308;16.916;2024-01-07T08:11:02;4.50;;;3.40;;
76752;SDS011;65687;51.308;16.916;2024-01-07T08:16:07;4.50;;;3.30;;
76752;SDS011;65687;51.308;16.916;2024-01-07T08:21:09;7.10;;;3.70;;
76752;SDS011;65687;51.308;16.916;2024-01-07T08:26:11;6.10;;;4.50;;
76752;SDS011;65687;51.308;16.916;2024-01-07T08:31:14;9.10;;;5.30;;
76752;SDS011;65687;51.308;16.916;2024-01-07T08:36:15;4.60;;;2.90;;
76752;SDS011;65687;51.308;16.916;2024-01-07T08:41:18;4.40;;;2.50;;
76752;SDS011;65687;51.308;16.916;2024-01-07T08:46:20;4.20;;;2.50;;
76752;SDS011;65687;51.308;16.916;2024-01-07T08:51:22;6.10;;;3.50;;
76752;SDS011;65687;51.308;16.916;2024-01-07T08:56:23;4.40;;;3.00;;
76752;SDS011;65687;51.308;16.916;2024-01-07T09:01:25;5.70;;;3.50;;
76752;SDS011;65687;51.308;16.916;2024-01-07T09:06:27;3.80;;;2.50;;
76752;SDS011;65687;51.308;16.916;2024-01-07T09:11:28;5.60;;;3.20;;
76752;SDS011;65687;51.308;16.916;2024-01-07T09:16:30;3.00;;;2.30;;
76752;SDS011;65687;51.308;16.916;2024-01-07T09:21:32;6.90;;;3.30;;
76752;SDS011;65687;51.308;16.916;2024-01-07T09:26:35;1.90;;;1.30;;
76752;SDS011;65687;51.308;16.916;2024-01-07T09:31:36;3.70;;;2.50;;
76752;SDS011;65687;51.308;16.916;2024-01-07T09:36:38;4.10;;;2.50;;
76752;SDS011;65687;51.308;16.916;2024-01-07T09:41:40;5.90;;;2.60;;
76752;SDS011;65687;51.308;16.916;2024-01-07T09:46:41;7.00;;;3.20;;
76752;SDS011;65687;51.308;16.916;2024-01-07T09:51:47;3.50;;;2.80;;
76752;SDS011;65687;51.308;16.916;2024-01-07T09:56:53;3.80;;;2.00;;
76752;SDS011;65687;51.308;16.916;2024-01-07T10:02:01;6.00;;;2.50;;
76752;SDS011;65687;51.308;16.916;2024-01-07T10:07:03;5.20;;;2.60;;
76752;SDS011;65687;51.308;16.916;2024-01-07T10:12:05;6.40;;;2.90;;
76752;SDS011;65687;51.308;16.916;2024-01-07T10:17:14;4.30;;;2.90;;
76752;SDS011;65687;51.308;16.916;2024-01-07T10:22:17;2.50;;;2.20;;
76752;SDS011;65687;51.308;16.916;2024-01-07T10:27:19;7.00;;;4.00;;
76752;SDS011;65687;51.308;16.916;2024-01-07T10:32:23;7.10;;;3.90;;
76752;SDS011;65687;51.308;16.916;2024-01-07T10:37:25;8.60;;;4.00;;
76752;SDS011;65687;51.308;16.916;2024-01-07T10:42:27;8.90;;;3.90;;
76752;SDS011;65687;51.308;16.916;2024-01-07T10:47:32;9.40;;;3.90;;
76752;SDS011;65687;51.308;16.916;2024-01-07T10:52:37;12.00;;;5.10;;
76752;SDS011;65687;51.308;16.916;2024-01-07T10:57:47;13.80;;;6.20;;
76752;SDS011;65687;51.308;16.916;2024-01-07T11:02:53;5.10;;;2.70;;
76752;SDS011;65687;51.308;16.916;2024-01-07T11:08:06;7.40;;;4.30;;
76752;SDS011;65687;51.308;16.916;2024-01-07T11:13:31;6.20;;;3.80;;
76752;SDS011;65687;51.308;16.916;2024-01-07T11:18:40;8.10;;;3.50;;
76752;SDS011;65687;51.308;16.916;2024-01-07T11:23:47;3.30;;;2.40;;
76752;SDS011;65687;51.308;16.916;2024-01-07T11:28:53;4.80;;;3.00;;
76752;SDS011;65687;51.308;16.916;2024-01-07T11:33:57;7.00;;;3.50;;
76752;SDS011;65687;51.308;16.916;2024-01-07T11:38:58;6.70;;;3.80;;
76752;SDS011;65687;51.308;16.916;2024-01-07T11:44:03;4.30;;;2.80;;
76752;SDS011;65687;51.308;16.916;2024-01-07T11:49:05;5.70;;;3.20;;
76752;SDS011;65687;51.308;16.916;2024-01-07T11:54:10;8.20;;;5.50;;
76752;SDS011;65687;51.308;16.916;2024-01-07T11:59:11;8.10;;;5.00;;
76752;SDS011;65687;51.308;16.916;2024-01-07T12:04:13;9.30;;;4.30;;
76752;SDS011;65687;51.308;16.916;2024-01-07T12:09:15;7.20;;;4.10;;
76752;SDS011;65687;51.308;16.916;2024-01-07T12:14:18;9.80;;;4.90;;
76752;SDS011;65687;51.308;16.916;2024-01-07T12:19:20;9.30;;;4.50;;
76752;SDS011;65687;51.308;16.916;2024-01-07T12:24:27;9.10;;;5.70;;
76752;SDS011;65687;51.308;16.916;2024-01-07T12:29:28;9.90;;;4.90;;
76752;SDS011;65687;51.308;16.916;2024-01-07T12:34:30;4.30;;;2.70;;
76752;SDS011;65687;51.308;16.916;2024-01-07T12:39:32;11.40;;;4.00;;
76752;SDS011;65687;51.308;16.916;2024-01-07T12:44:36;6.10;;;3.70;;
76752;SDS011;65687;51.308;16.916;2024-01-07T12:49:38;8.10;;;4.40;;
76752;SDS011;65687;51.308;16.916;2024-01-07T12:54:39;8.20;;;4.00;;
76752;SDS011;65687;51.308;16.916;2024-01-07T12:59:41;4.30;;;3.60;;
76752;SDS011;65687;51.308;16.916;2024-01-07T13:04:45;7.00;;;3.90;;
76752;SDS011;65687;51.308;16.916;2024-01-07T13:09:47;9.40;;;5.10;;
76752;SDS011;65687;51.308;16.916;2024-01-07T13:14:49;9.10;;;3.90;;
76752;SDS011;65687;51.308;16.916;2024-01-07T13:19:51;7.60;;;3.20;;
76752;SDS011;65687;51.308;16.916;2024-01-07T13:24:53;10.60;;;5.40;;
76752;SDS011;65687;51.308;16.916;2024-01-07T13:29:56;10.40;;;5.80;;
76752;SDS011;65687;51.308;16.916;2024-01-07T13:34:57;10.90;;;6.00;;
76752;SDS011;65687;51.308;16.916;2024-01-07T13:40:00;11.20;;;6.00;;
76752;SDS011;65687;51.308;16.916;2024-01-07T13:45:02;11.40;;;5.70;;
76752;SDS011;65687;51.308;16.916;2024-01-07T13:50:05;10.20;;;5.50;;
76752;SDS011;65687;51.308;16.916;2024-01-07T13:55:07;7.30;;;3.60;;
76752;SDS011;65687;51.308;16.916;2024-01-07T14:00:11;11.60;;;5.10;;
76752;SDS011;65687;51.308;16.916;2024-01-07T14:05:19;7.10;;;3.30;;
76752;SDS011;65687;51.308;16.916;2024-01-07T14:10:21;6.70;;;4.30;;
76752;SDS011;65687;51.308;16.916;2024-01-07T14:15:22;10.60;;;5.30;;
76752;SDS011;65687;51.308;16.916;2024-01-07T14:20:24;4.60;;;3.00;;
76752;SDS011;65687;51.308;16.916;2024-01-07T14:25:26;6.30;;;3.40;;
76752;SDS011;65687;51.308;16.916;2024-01-07T14:30:28;13.80;;;7.60;;
76752;SDS011;65687;51.308;16.916;2024-01-07T14:35:30;7.50;;;4.70;;
76752;SDS011;65687;51.308;16.916;2024-01-07T14:40:31;6.30;;;3.30;;
76752;SDS011;65687;51.308;16.916;2024-01-07T14:45:34;5.60;;;4.10;;
76752;SDS011;65687;51.308;16.916;2024-01-07T14:50:36;5.20;;;2.90;;
76752;SDS011;65687;51.308;16.916;2024-01-07T14:55:38;10.70;;;5.10;;
76752;SDS011;65687;51.308;16.916;2024-01-07T15:00:39;15.40;;;7.80;;
76752;SDS011;65687;51.308;16.916;2024-01-07T15:05:41;15.30;;;6.20;;
76752;SDS011;65687;51.308;16.916;2024-01-07T15:10:43;11.40;;;5.70;;
76752;SDS011;65687;51.308;16.916;2024-01-07T15:15:45;6.40;;;4.30;;
76752;SDS011;65687;51.308;16.916;2024-01-07T15:20:46;8.60;;;4.80;;
76752;SDS011;65687;51.308;16.916;2024-01-07T15:25:53;7.80;;;3.80;;
76752;SDS011;65687;51.308;16.916;2024-01-07T15:30:55;15.10;;;5.10;;
76752;SDS011;65687;51.308;16.916;2024-01-07T15:35:57;8.90;;;4.60;;
76752;SDS011;65687;51.308;16.916;2024-01-07T15:41:00;7.80;;;4.20;;
76752;SDS011;65687;51.308;16.916;2024-01-07T15:46:01;11.60;;;5.80;;
76752;SDS011;65687;51.308;16.916;2024-01-07T15:51:04;12.30;;;6.90;;
76752;SDS011;65687;51.308;16.916;2024-01-07T15:56:06;4.40;;;3.40;;
76752;SDS011;65687;51.308;16.916;2024-01-07T16:01:07;12.50;;;5.20;;
76752;SDS011;65687;51.308;16.916;2024-01-07T16:06:09;10.20;;;5.60;;
76752;SDS011;65687;51.308;16.916;2024-01-07T16:11:11;18.50;;;7.60;;
76752;SDS011;65687;51.308;16.916;2024-01-07T16:16:17;11.80;;;5.50;;
76752;SDS011;65687;51.308;16.916;2024-01-07T16:21:19;13.80;;;7.20;;
76752;SDS011;65687;51.308;16.916;2024-01-07T16:26:22;16.80;;;7.60;;
76752;SDS011;65687;51.308;16.916;2024-01-07T16:31:24;9.40;;;4.30;;
76752;SDS011;65687;51.308;16.916;2024-01-07T16:36:26;16.20;;;8.20;;
76752;SDS011;65687;51.308;16.916;2024-01-07T16:41:28;19.10;;;9.00;;
76752;SDS011;65687;51.308;16.916;2024-01-07T16:46:30;8.70;;;5.70;;
76752;SDS011;65687;51.308;16.916;2024-01-07T16:51:32;16.20;;;9.00;;
76752;SDS011;65687;51.308;16.916;2024-01-07T16:56:34;16.20;;;8.20;;
76752;SDS011;65687;51.308;16.916;2024-01-07T17:01:36;10.70;;;7.30;;
76752;SDS011;65687;51.308;16.916;2024-01-07T17:06:37;17.00;;;9.20;;
76752;SDS011;65687;51.308;16.916;2024-01-07T17:11:39;16.30;;;7.70;;
76752;SDS011;65687;51.308;16.916;2024-01-07T17:16:42;20.40;;;9.30;;
76752;SDS011;65687;51.308;16.916;2024-01-07T17:21:44;7.80;;;3.50;;
76752;SDS011;65687;51.308;16.916;2024-01-07T17:26:46;20.50;;;11.90;;
76752;SDS011;65687;51.308;16.916;2024-01-07T17:31:47;21.70;;;12.30;;
76752;SDS011;65687;51.308;16.916;2024-01-07T17:36:49;15.20;;;6.70;;
76752;SDS011;65687;51.308;16.916;2024-01-07T17:41:53;12.50;;;7.40;;
76752;SDS011;65687;51.308;16.916;2024-01-07T17:46:55;10.10;;;7.00;;
76752;SDS011;65687;51.308;16.916;2024-01-07T17:51:57;11.00;;;6.50;;
76752;SDS011;65687;51.308;16.916;2024-01-07T17:56:59;19.10;;;9.30;;
76752;SDS011;65687;51.308;16.916;2024-01-07T18:02:01;7.80;;;3.70;;
76752;SDS011;65687;51.308;16.916;2024-01-07T18:07:04;11.20;;;7.90;;
76752;SDS011;65687;51.308;16.916;2024-01-07T18:12:06;16.50;;;9.10;;
76752;SDS011;65687;51.308;16.916;2024-01-07T18:17:10;14.50;;;8.60;;
76752;SDS011;65687;51.308;16.916;2024-01-07T18:22:12;12.10;;;5.80;;
76752;SDS011;65687;51.308;16.916;2024-01-07T18:27:14;8.40;;;4.90;;
76752;SDS011;65687;51.308;16.916;2024-01-07T18:32:16;13.60;;;7.10;;
76752;SDS011;65687;51.308;16.916;2024-01-07T18:37:18;14.00;;;8.40;;
76752;SDS011;65687;51.308;16.916;2024-01-07T18:42:23;6.10;;;4.20;;
76752;SDS011;65687;51.308;16.916;2024-01-07T18:47:25;17.30;;;8.70;;
76752;SDS011;65687;51.308;16.916;2024-01-07T18:52:28;15.30;;;7.80;;
76752;SDS011;65687;51.308;16.916;2024-01-07T18:57:30;9.60;;;6.80;;
76752;SDS011;65687;51.308;16.916;2024-01-07T19:02:32;15.90;;;8.30;;
76752;SDS011;65687;51.308;16.916;2024-01-07T19:07:34;17.30;;;9.50;;
76752;SDS011;65687;51.308;16.916;2024-01-07T19:12:37;18.00;;;8.70;;
76752;SDS011;65687;51.308;16.916;2024-01-07T19:17:39;16.70;;;8.00;;
76752;SDS011;65687;51.308;16.916;2024-01-07T19:22:42;16.80;;;9.20;;
76752;SDS011;65687;51.308;16.916;2024-01-07T19:32:47;12.80;;;6.30;;
76752;SDS011;65687;51.308;16.916;2024-01-07T19:37:50;6.00;;;4.50;;
76752;SDS011;65687;51.308;16.916;2024-01-07T19:42:53;12.10;;;5.20;;
76752;SDS011;65687;51.308;16.916;2024-01-07T19:47:57;9.60;;;4.60;;
76752;SDS011;65687;51.308;16.916;2024-01-07T19:52:58;20.90;;;8.80;;
76752;SDS011;65687;51.308;16.916;2024-01-07T19:58:01;21.40;;;10.50;;
76752;SDS011;65687;51.308;16.916;2024-01-07T20:03:03;12.50;;;5.20;;
76752;SDS011;65687;51.308;16.916;2024-01-07T20:08:05;19.90;;;10.80;;
76752;SDS011;65687;51.308;16.916;2024-01-07T20:13:07;17.50;;;9.20;;
76752;SDS011;65687;51.308;16.916;2024-01-07T20:18:09;19.10;;;9.80;;
76752;SDS011;65687;51.308;16.916;2024-01-07T20:23:11;19.60;;;10.60;;
76752;SDS011;65687;51.308;16.916;2024-01-07T20:28:13;8.40;;;5.00;;
76752;SDS011;65687;51.308;16.916;2024-01-07T20:33:15;13.50;;;7.60;;
76752;SDS011;65687;51.308;16.916;2024-01-07T20:38:17;15.30;;;8.20;;
76752;SDS011;65687;51.308;16.916;2024-01-07T20:43:21;19.70;;;9.70;;
76752;SDS011;65687;51.308;16.916;2024-01-07T20:48:24;18.40;;;9.20;;
76752;SDS011;65687;51.308;16.916;2024-01-07T20:53:27;14.90;;;7.80;;
76752;SDS011;65687;51.308;16.916;2024-01-07T20:58:29;14.90;;;9.60;;
76752;SDS011;65687;51.308;16.916;2024-01-07T21:03:31;21.20;;;10.20;;
76752;SDS011;65687;51.308;16.916;2024-01-07T21:08:32;17.30;;;10.00;;
76752;SDS011;65687;51.308;16.916;2024-01-07T21:13:36;18.40;;;9.40;;
76752;SDS011;65687;51.308;16.916;2024-01-07T21:18:38;13.20;;;6.40;;
76752;SDS011;65687;51.308;16.916;2024-01-07T21:23:41;17.30;;;11.00;;
76752;SDS011;65687;51.308;16.916;2024-01-07T21:28:43;14.40;;;8.90;;
76752;SDS011;65687;51.308;16.916;2024-01-07T21:33:45;9.50;;;4.90;;
76752;SDS011;65687;51.308;16.916;2024-01-07T21:38:47;17.10;;;9.10;;
76752;SDS011;65687;51.308;16.916;2024-01-07T21:43:49;15.60;;;7.30;;
76752;SDS011;65687;51.308;16.916;2024-01-07T21:48:52;21.50;;;9.00;;
76752;SDS011;65687;51.308;16.916;2024-01-07T21:53:57;22.80;;;10.20;;
76752;SDS011;65687;51.308;16.916;2024-01-07T21:58:59;15.80;;;7.80;;
76752;SDS011;65687;51.308;16.916;2024-01-07T22:04:00;10.40;;;4.80;;
76752;SDS011;65687;51.308;16.916;2024-01-07T22:09:02;8.10;;;6.90;;
76752;SDS011;65687;51.308;16.916;2024-01-07T22:14:04;14.60;;;7.50;;
76752;SDS011;65687;51.308;16.916;2024-01-07T22:19:05;11.80;;;4.90;;
76752;SDS011;65687;51.308;16.916;2024-01-07T22:24:07;19.70;;;10.80;;
76752;SDS011;65687;51.308;16.916;2024-01-07T22:29:12;15.50;;;9.20;;
76752;SDS011;65687;51.308;16.916;2024-01-07T22:34:14;7.00;;;5.00;;
76752;SDS011;65687;51.308;16.916;2024-01-07T22:39:16;17.00;;;8.50;;
76752;SDS011;65687;51.308;16.916;2024-01-07T22:44:17;17.90;;;10.90;;
76752;SDS011;65687;51.308;16.916;2024-01-07T22:49:19;14.10;;;6.90;;
76752;SDS011;65687;51.308;16.916;2024-01-07T22:54:21;11.70;;;7.70;;
76752;SDS011;65687;51.308;16.916;2024-01-07T22:59:23;7.70;;;4.60;;
76752;SDS011;65687;51.308;16.916;2024-01-07T23:04:24;18.70;;;11.10;;
76752;SDS011;65687;51.308;16.916;2024-01-07T23:09:26;15.80;;;9.80;;
76752;SDS011;65687;51.308;16.916;2024-01-07T23:14:28;13.00;;;6.70;;
76752;SDS011;65687;51.308;16.916;2024-01-07T23:19:30;10.40;;;5.60;;
76752;SDS011;65687;51.308;16.916;2024-01-07T23:24:32;19.60;;;11.30;;
76752;SDS011;65687;51.308;16.916;2024-01-07T23:29:33;17.80;;;8.20;;
76752;SDS011;65687;51.308;16.916;2024-01-07T23:34:37;21.40;;;9.60;;
76752;SDS011;65687;51.308;16.916;2024-01-07T23:39:39;11.80;;;6.30;;
76752;SDS011;65687;51.308;16.916;2024-01-07T23:44:40;20.60;;;11.00;;
76752;SDS011;65687;51.308;16.916;2024-01-07T23:49:42;22.00;;;11.80;;
76752;SDS011;65687;51.308;16.916;2024-01-07T23:54:44;21.60;;;12.50;;
76752;SDS011;65687;51.308;16.916;2024-01-07T23:59:45;23.70;;;10.70;;
